createdAt,value
2023-01-07T00:01:24.008Z,10.5
2023-01-07T00:03:30.625Z,10.6
2023-01-07T00:05:34.171Z,10.8
2023-01-07T00:07:37.768Z,10.6
2023-01-07T00:09:41.312Z,10.6
2023-01-07T00:11:44.906Z,10.3
2023-01-07T00:13:48.468Z,10.8
2023-01-07T00:15:52.086Z,10.7
2023-01-07T00:17:58.703Z,10.3
2023-01-07T00:20:02.261Z,10.7
2023-01-07T00:22:05.861Z,10.6
2023-01-07T00:23:09.177Z,10.4
2023-01-07T00:25:12.714Z,10.3
2023-01-07T00:27:16.320Z,10.8
2023-01-07T00:29:19.902Z,10.4
2023-01-07T00:31:26.677Z,10.6
2023-01-07T00:33:30.144Z,10.8
2023-01-07T00:35:33.680Z,10.8
2023-01-07T00:37:37.253Z,10.6
2023-01-07T00:39:42.024Z,10.4
2023-01-07T00:41:44.424Z,10.6
2023-01-07T00:43:47.974Z,10.7
2023-01-07T00:45:54.633Z,10.6
2023-01-07T00:47:58.217Z,10.6
2023-01-07T00:50:01.804Z,10.5
2023-01-07T00:52:05.392Z,10.8
2023-01-07T00:54:08.960Z,10.7
2023-01-07T00:56:12.544Z,10.6
2023-01-07T00:58:16.105Z,10.8
2023-01-07T01:04:29.877Z,10.5
2023-01-07T01:06:33.478Z,10.5
2023-01-07T01:08:37.017Z,10.5
2023-01-07T01:10:40.602Z,10.5
2023-01-07T01:14:50.810Z,10.5
2023-01-07T01:16:54.397Z,10.8
2023-01-07T01:18:57.979Z,10.7
2023-01-07T01:20:01.308Z,10.7
2023-01-07T01:22:04.853Z,10.5
2023-01-07T01:24:08.378Z,10.5
2023-01-07T01:26:11.963Z,10.6
2023-01-07T01:28:18.656Z,10.4
2023-01-07T01:30:22.202Z,10.6
2023-01-07T01:32:25.776Z,10.6
2023-01-07T01:34:29.322Z,10.3
2023-01-07T01:36:32.894Z,10.5
2023-01-07T01:40:40.115Z,10.4
2023-01-07T01:44:50.280Z,10.2
2023-01-07T01:46:53.917Z,10.3
2023-01-07T01:48:57.416Z,10.5
2023-01-07T01:51:01.011Z,10.4
2023-01-07T01:53:04.564Z,10.5
2023-01-07T01:59:18.330Z,10.5
2023-01-07T02:01:22.099Z,10.3
2023-01-07T02:03:25.445Z,10.4
2023-01-07T02:07:32.626Z,10.6
2023-01-07T02:09:36.193Z,10.4
2023-01-07T02:11:42.833Z,10.4
2023-01-07T02:13:46.402Z,10.3
2023-01-07T02:15:49.994Z,10.5
2023-01-07T02:16:53.358Z,10.5
2023-01-07T02:18:56.901Z,10.5
2023-01-07T02:21:00.486Z,10.5
2023-01-07T02:23:04.019Z,10.6
2023-01-07T02:25:10.708Z,10.5
2023-01-07T02:27:14.299Z,10.6
2023-01-07T02:29:17.851Z,10.4
2023-01-07T02:31:21.472Z,10.4
2023-01-07T02:33:24.967Z,10.6
2023-01-07T02:35:28.582Z,10.6
2023-01-07T02:37:32.164Z,10.5
2023-01-07T02:39:38.788Z,10.5
2023-01-07T02:41:42.363Z,10.6
2023-01-07T02:43:45.924Z,10.6
2023-01-07T02:45:49.589Z,10.5
2023-01-07T02:47:53.029Z,10.5
2023-01-07T02:49:56.603Z,10.6
2023-01-07T02:52:00.204Z,10.6
2023-01-07T02:54:06.838Z,10.6
2023-01-07T02:56:10.407Z,10.6
2023-01-07T02:58:13.956Z,10.5
2023-01-07T03:00:17.545Z,10.7
2023-01-07T03:02:21.125Z,10.7
2023-01-07T03:04:24.716Z,10.6
2023-01-07T03:06:28.267Z,10.5
2023-01-07T03:08:34.905Z,10.7
2023-01-07T03:10:38.473Z,10.5
2023-01-07T03:12:42.100Z,10.6
2023-01-07T03:15:01.745Z,10.6
2023-01-07T03:17:05.316Z,10.5
2023-01-07T03:19:08.885Z,10.6
2023-01-07T03:21:15.536Z,10.5
2023-01-07T03:23:19.110Z,10.5
2023-01-07T03:25:22.652Z,10.5
2023-01-07T03:27:26.215Z,10.4
2023-01-07T03:31:33.441Z,10.4
2023-01-07T03:37:47.166Z,10.4
2023-01-07T03:39:50.704Z,10.3
2023-01-07T03:41:54.292Z,10.4
2023-01-07T03:43:57.868Z,10.4
2023-01-07T03:46:01.486Z,10.2
2023-01-07T03:48:04.993Z,10.4
2023-01-07T03:50:11.824Z,10.5
2023-01-07T03:52:15.170Z,10.3
2023-01-07T03:54:18.726Z,10.4
2023-01-07T03:56:22.354Z,10.3
2023-01-07T03:58:25.841Z,10.3
2023-01-07T04:00:29.439Z,10.3
2023-01-07T04:04:39.711Z,10.3
2023-01-07T04:06:43.201Z,10.2
2023-01-07T04:08:46.776Z,10.3
2023-01-07T04:09:50.110Z,10.3
2023-01-07T04:11:53.703Z,10.3
2023-01-07T04:16:00.842Z,10.3
2023-01-07T04:20:11.068Z,10.1
2023-01-07T04:22:14.644Z,10.3
2023-01-07T04:26:21.819Z,10.2
2023-01-07T04:28:25.333Z,10.2
2023-01-07T04:30:28.978Z,10.2
2023-01-07T04:32:35.598Z,10.1
2023-01-07T04:34:39.168Z,10.1
2023-01-07T04:36:42.757Z,10.1
2023-01-07T04:38:46.320Z,10.1
2023-01-07T04:40:49.896Z,10.1
2023-01-07T04:42:53.504Z,10.2
2023-01-07T04:44:57.023Z,10.1
2023-01-07T04:47:03.680Z,10.2
2023-01-07T04:49:07.292Z,10.1
2023-01-07T04:51:10.860Z,10.1
2023-01-07T04:55:18.090Z,10
2023-01-07T04:57:21.602Z,9.9
2023-01-07T04:59:25.201Z,9.9
2023-01-07T05:01:31.916Z,10
2023-01-07T05:03:35.418Z,10
2023-01-07T05:05:39.000Z,9.9
2023-01-07T05:08:45.895Z,9.8
2023-01-07T05:12:53.030Z,10
2023-01-07T05:23:13.984Z,9.8
2023-01-07T05:27:21.195Z,9.9
2023-01-07T05:29:27.785Z,9.9
2023-01-07T05:31:31.405Z,9.8
2023-01-07T05:33:34.980Z,9.8
2023-01-07T05:35:38.556Z,9.8
2023-01-07T05:37:42.157Z,9.9
2023-01-07T05:39:45.724Z,9.8
2023-01-07T05:41:49.329Z,9.8
2023-01-07T05:43:55.949Z,9.7
2023-01-07T05:45:59.586Z,9.9
2023-01-07T05:48:03.098Z,9.9
2023-01-07T05:50:06.695Z,9.9
2023-01-07T05:54:13.842Z,9.8
2023-01-07T05:58:24.092Z,9.7
2023-01-07T06:02:31.227Z,9.8
2023-01-07T06:03:34.679Z,9.8
2023-01-07T06:05:38.160Z,9.9
2023-01-07T06:07:41.747Z,9.9
2023-01-07T06:09:45.340Z,9.9
2023-01-07T06:11:52.068Z,9.9
2023-01-07T06:14:02.691Z,10.1
2023-01-07T06:15:59.179Z,10.1
2023-01-07T06:18:02.735Z,10.1
2023-01-07T06:20:06.349Z,10.1
2023-01-07T06:22:09.911Z,10.2
2023-01-07T06:24:13.489Z,10.1
2023-01-07T06:26:20.179Z,10.1
2023-01-07T06:28:23.736Z,10.1
2023-01-07T06:32:30.917Z,10
2023-01-07T06:34:34.524Z,10
2023-01-07T06:36:38.114Z,10.1
2023-01-07T06:38:41.632Z,10.1
2023-01-07T06:42:51.891Z,10.1
2023-01-07T06:44:55.467Z,10.1
2023-01-07T06:46:59.047Z,10.1
2023-01-07T06:49:02.655Z,10
2023-01-07T06:51:06.224Z,10
2023-01-07T06:59:23.569Z,10
2023-01-07T07:03:52.908Z,10.1
2023-01-07T07:05:56.470Z,10
2023-01-07T07:08:03.132Z,9.9
2023-01-07T07:10:06.733Z,9.9
2023-01-07T07:18:21.031Z,9.9
2023-01-07T07:20:24.622Z,10
2023-01-07T07:22:31.246Z,10
2023-01-07T07:24:34.837Z,10
2023-01-07T07:26:38.433Z,10.1
2023-01-07T07:28:41.990Z,10.1
2023-01-07T07:30:48.077Z,10
2023-01-07T07:32:49.169Z,10
2023-01-07T07:34:52.714Z,10.2
2023-01-07T07:36:59.347Z,10.2
2023-01-07T07:39:03.005Z,10.2
2023-01-07T07:41:06.542Z,10.2
2023-01-07T07:43:13.053Z,10.2
2023-01-07T07:45:13.680Z,10.2
2023-01-07T07:47:17.241Z,10.3
2023-01-07T07:49:20.839Z,10.3
2023-01-07T07:51:27.460Z,10.3
2023-01-07T07:53:31.062Z,10.3
2023-01-07T07:55:34.645Z,10.4
2023-01-07T07:56:37.982Z,10.4
2023-01-07T07:58:41.568Z,10.4
2023-01-07T08:00:45.125Z,10.4
2023-01-07T08:04:55.311Z,10.4
2023-01-07T08:09:02.465Z,10.4
2023-01-07T08:11:06.042Z,10.4
2023-01-07T08:17:16.766Z,10.4
2023-01-07T08:19:23.412Z,10.4
2023-01-07T08:21:26.998Z,10.4
2023-01-07T08:29:41.284Z,10.5
2023-01-07T08:31:44.910Z,10.6
2023-01-07T08:33:51.532Z,10.6
2023-01-07T08:35:55.123Z,10.6
2023-01-07T08:37:58.712Z,10.6
2023-01-07T08:40:04.604Z,10.6
2023-01-07T08:42:05.869Z,10.6
2023-01-07T08:44:09.388Z,10.6
2023-01-07T08:46:12.979Z,10.6
2023-01-07T08:53:30.218Z,10.7
2023-01-07T08:55:33.699Z,10.7
2023-01-07T08:57:37.290Z,10.7
2023-01-07T08:59:40.867Z,10.8
2023-01-07T09:01:47.653Z,10.8
2023-01-07T09:03:51.116Z,10.8
2023-01-07T09:05:54.702Z,10.8
2023-01-07T09:07:58.274Z,10.7
2023-01-07T09:12:08.345Z,10.8
2023-01-07T09:16:17.466Z,10.8
2023-01-07T09:18:22.459Z,10.8
2023-01-07T09:24:31.476Z,10.8
2023-01-07T09:26:35.056Z,10.8
2023-01-07T09:28:38.619Z,10.8
2023-01-07T09:30:45.280Z,10.9
2023-01-07T09:32:48.851Z,10.9
2023-01-07T09:34:52.449Z,11
2023-01-07T09:36:55.975Z,10.9
2023-01-07T09:38:59.571Z,11
2023-01-07T09:41:03.190Z,11
2023-01-07T09:43:06.737Z,11
2023-01-07T09:47:16.971Z,11
2023-01-07T09:49:20.564Z,11
2023-01-07T09:50:25.169Z,11
2023-01-07T09:52:27.586Z,11
2023-01-07T09:54:31.057Z,11
2023-01-07T09:56:34.625Z,11
2023-01-07T09:58:41.269Z,11
2023-01-07T10:00:44.855Z,11
2023-01-07T10:04:51.969Z,11
2023-01-07T10:08:59.131Z,11.1
2023-01-07T10:11:02.694Z,11.1
2023-01-07T10:13:14.426Z,11.1
2023-01-07T10:15:12.923Z,11.2
2023-01-07T10:17:16.479Z,11.2
2023-01-07T10:19:20.052Z,11.4
2023-01-07T10:21:23.638Z,11.4
2023-01-07T10:23:27.191Z,11.4
2023-01-07T10:25:30.768Z,11.3
2023-01-07T10:29:40.969Z,11.2
2023-01-07T10:31:44.556Z,11.3
2023-01-07T10:33:48.103Z,11.3
2023-01-07T10:35:51.665Z,11.3
2023-01-07T10:37:55.277Z,11.3
2023-01-07T10:39:58.829Z,11.3
2023-01-07T10:42:05.457Z,11.3
2023-01-07T10:44:08.991Z,11.3
2023-01-07T10:46:12.707Z,11.4
2023-01-07T10:50:34.268Z,11.4
2023-01-07T10:54:44.505Z,11.4
2023-01-07T10:56:48.073Z,11.4
2023-01-07T10:58:51.653Z,11.4
2023-01-07T11:00:55.326Z,11.5
2023-01-07T11:02:58.851Z,11.5
2023-01-07T11:05:02.340Z,11.5
2023-01-07T11:07:05.909Z,11.7
2023-01-07T11:09:12.537Z,12.9
2023-01-07T11:11:16.088Z,13.3
2023-01-07T11:13:19.678Z,13.6
2023-01-07T11:15:23.546Z,13.5
2023-01-07T11:17:26.806Z,13.6
2023-01-07T11:19:30.342Z,13.5
2023-01-07T11:21:43.624Z,13.6
2023-01-07T11:23:42.791Z,13.5
2023-01-07T11:25:44.060Z,13.5
2023-01-07T11:27:47.614Z,13.6
2023-01-07T11:29:51.515Z,13.8
2023-01-07T11:31:54.795Z,13.5
2023-01-07T11:34:02.305Z,13.4
2023-01-07T11:36:01.831Z,13.4
2023-01-07T11:38:08.382Z,14
2023-01-07T11:40:11.907Z,13.6
2023-01-07T11:42:15.460Z,13.8
2023-01-07T11:43:18.743Z,14
2023-01-07T11:45:22.282Z,13.4
2023-01-07T11:47:25.793Z,13.2
2023-01-07T11:49:29.325Z,12.9
2023-01-07T11:53:39.515Z,13.1
2023-01-07T11:55:43.021Z,12.5
2023-01-07T12:06:03.741Z,12.7
2023-01-07T12:08:07.311Z,13
2023-01-07T12:12:14.357Z,13.3
2023-01-07T12:16:21.500Z,13.2
2023-01-07T12:18:24.997Z,13.1
2023-01-07T12:20:31.588Z,13.2
2023-01-07T12:22:35.137Z,12.9
2023-01-07T12:24:38.632Z,13.3
2023-01-07T12:26:42.153Z,13.3
2023-01-07T12:28:45.694Z,13
2023-01-07T12:30:49.196Z,13.4
2023-01-07T12:32:52.715Z,13.8
2023-01-07T12:34:59.789Z,14.4
2023-01-07T12:37:02.892Z,14.5
2023-01-07T12:39:06.577Z,13.9
2023-01-07T12:42:13.195Z,14
2023-01-07T12:44:16.727Z,13.8
2023-01-07T12:46:20.351Z,13.7
2023-01-07T12:48:26.925Z,13.2
2023-01-07T12:54:37.445Z,13.4
2023-01-07T12:56:40.970Z,13.8
2023-01-07T12:58:44.445Z,13.5
2023-01-07T13:00:47.951Z,13
2023-01-07T13:02:54.632Z,12.7
2023-01-07T13:04:58.132Z,12.6
2023-01-07T13:07:01.651Z,12.6
2023-01-07T13:09:05.142Z,12.8
2023-01-07T13:11:08.686Z,12.7
2023-01-07T13:13:14.074Z,12.4
2023-01-07T13:17:22.343Z,12.9
2023-01-07T13:19:25.856Z,13
2023-01-07T13:21:29.361Z,13.4
2023-01-07T13:23:32.902Z,13
2023-01-07T13:25:36.414Z,12.9
2023-01-07T13:29:43.459Z,12.4
2023-01-07T13:33:53.632Z,12.2
2023-01-07T13:35:57.507Z,12.4
2023-01-07T13:41:07.539Z,12.2
2023-01-07T13:43:11.061Z,12.1
2023-01-07T13:47:21.245Z,12.1
2023-01-07T13:49:24.777Z,12
2023-01-07T13:51:28.301Z,12
2023-01-07T13:53:31.873Z,11.9
2023-01-07T13:55:35.369Z,11.8
2023-01-07T13:59:45.548Z,11.6
2023-01-07T14:01:49.250Z,11.6
2023-01-07T14:03:52.646Z,11.6
2023-01-07T14:14:13.516Z,11.4
2023-01-07T14:16:17.162Z,11.4
2023-01-07T14:18:20.655Z,11.4
2023-01-07T14:20:24.208Z,11.4
2023-01-07T14:22:27.777Z,11.5
2023-01-07T14:24:31.334Z,11.5
2023-01-07T14:26:34.871Z,11.4
2023-01-07T14:28:41.471Z,11.4
2023-01-07T14:30:45.160Z,11.3
2023-01-07T14:32:48.610Z,11.3
2023-01-07T14:35:08.038Z,11.3
2023-01-07T14:37:10.505Z,11.3
2023-01-07T14:39:14.095Z,11.3
2023-01-07T14:41:20.767Z,11.2
2023-01-07T14:43:24.288Z,11.2
2023-01-07T14:45:27.887Z,11.1
2023-01-07T14:47:31.381Z,11.1
2023-01-07T14:49:35.004Z,11.1
2023-01-07T14:53:42.108Z,11
2023-01-07T15:01:59.487Z,10.9
2023-01-07T15:04:03.029Z,10.9
2023-01-07T15:06:08.210Z,10.9
2023-01-07T15:08:11.698Z,10.9
2023-01-07T15:12:21.940Z,10.8
2023-01-07T15:14:25.514Z,10.7
2023-01-07T15:16:29.159Z,10.7
2023-01-07T15:18:32.694Z,10.7
2023-01-07T15:20:36.274Z,10.7
2023-01-07T15:24:46.495Z,10.6
2023-01-07T15:26:50.114Z,10.6
2023-01-07T15:28:53.666Z,10.6
2023-01-07T15:29:56.970Z,10.6
2023-01-07T15:32:00.607Z,10.6
2023-01-07T15:34:04.173Z,10.6
2023-01-07T15:36:07.748Z,10.7
2023-01-07T15:38:14.410Z,10.8
2023-01-07T15:40:17.968Z,10.8
2023-01-07T15:42:21.571Z,10.8
2023-01-07T15:44:25.158Z,10.8
2023-01-07T15:46:28.771Z,10.8
2023-01-07T15:54:46.133Z,10.7
2023-01-07T15:56:49.723Z,10.7
2023-01-07T15:58:53.281Z,10.7
2023-01-07T16:00:56.929Z,10.7
2023-01-07T16:03:00.443Z,10.7
2023-01-07T16:05:04.122Z,10.7
2023-01-07T16:07:10.707Z,10.7
2023-01-07T16:09:14.222Z,10.7
2023-01-07T16:11:17.795Z,10.7
2023-01-07T16:13:21.381Z,10.7
2023-01-07T16:17:28.560Z,10.8
2023-01-07T16:21:38.787Z,10.6
2023-01-07T16:23:42.351Z,10.7
2023-01-07T16:25:45.907Z,10.7
2023-01-07T16:26:49.253Z,10.7
2023-01-07T16:28:52.832Z,10.7
2023-01-07T16:30:56.375Z,10.7
2023-01-07T16:32:59.942Z,10.7
2023-01-07T16:35:06.604Z,10.8
2023-01-07T16:37:10.169Z,10.8
2023-01-07T16:39:13.714Z,10.7
2023-01-07T16:41:17.271Z,10.7
2023-01-07T16:43:20.839Z,10.7
2023-01-07T16:45:24.401Z,10.7
2023-01-07T16:47:27.978Z,10.7
2023-01-07T16:49:34.630Z,10.6
2023-01-07T16:51:38.162Z,10.7
2023-01-07T16:53:41.744Z,10.6
2023-01-07T16:55:45.344Z,10.7
2023-01-07T16:57:48.869Z,10.6
2023-01-07T16:59:53.995Z,10.6
2023-01-07T17:01:56.051Z,10.6
2023-01-07T17:04:02.854Z,10.6
2023-01-07T17:06:06.250Z,10.6
2023-01-07T17:08:09.806Z,10.6
2023-01-07T17:10:13.398Z,10.6
2023-01-07T17:12:16.938Z,10.6
2023-01-07T17:14:20.529Z,10.6
2023-01-07T17:16:24.343Z,10.6
2023-01-07T17:18:30.793Z,10.5
2023-01-07T17:20:34.333Z,10.5
2023-01-07T17:22:37.916Z,10.4
2023-01-07T17:23:41.242Z,10.4
2023-01-07T17:27:48.356Z,10.2
2023-01-07T17:29:51.967Z,10.2
2023-01-07T17:31:58.627Z,10.2
2023-01-07T17:38:09.414Z,9.8
2023-01-07T17:42:16.600Z,9.6
2023-01-07T17:44:20.173Z,9.5
2023-01-07T17:46:27.745Z,9.4
2023-01-07T17:48:30.396Z,9.4
2023-01-07T17:52:37.625Z,9.4
2023-01-07T17:54:41.219Z,9.4
2023-01-07T17:58:48.376Z,9.3
2023-01-07T18:00:55.396Z,9.3
2023-01-07T18:02:58.788Z,9.2
2023-01-07T18:05:02.295Z,9.1
2023-01-07T18:07:05.907Z,9
2023-01-07T18:09:09.490Z,9
2023-01-07T18:11:13.095Z,9
2023-01-07T18:13:16.722Z,9.1
2023-01-07T18:15:23.371Z,9
2023-01-07T18:17:26.971Z,8.9
2023-01-07T18:19:30.599Z,9
2023-01-07T18:23:58.336Z,8.9
2023-01-07T18:26:01.940Z,9
2023-01-07T18:28:08.666Z,8.8
2023-01-07T18:32:15.855Z,9
2023-01-07T18:34:19.423Z,8.8
2023-01-07T18:36:23.037Z,8.9
2023-01-07T18:38:26.683Z,8.9
2023-01-07T18:40:30.287Z,9
2023-01-07T18:42:36.959Z,9
2023-01-07T18:44:40.555Z,8.9
2023-01-07T18:46:44.192Z,9
2023-01-07T18:48:47.810Z,9
2023-01-07T18:54:58.621Z,9
2023-01-07T18:59:08.926Z,9
2023-01-07T19:01:12.859Z,9
2023-01-07T19:03:16.152Z,9.1
2023-01-07T19:05:19.736Z,9
2023-01-07T19:07:23.348Z,9.1
2023-01-07T19:09:26.998Z,9.1
2023-01-07T19:13:37.241Z,9.2
2023-01-07T19:16:44.516Z,9.1
2023-01-07T19:18:47.974Z,9.1
2023-01-07T19:20:51.426Z,9.2
2023-01-07T19:22:54.985Z,9.1
2023-01-07T19:25:01.690Z,9.1
2023-01-07T19:27:05.323Z,9.1
2023-01-07T19:29:08.935Z,9.2
2023-01-07T19:33:16.076Z,9.1
2023-01-07T19:43:37.218Z,9.1
2023-01-07T19:58:05.537Z,9.3
2023-01-07T20:04:16.363Z,9.3
2023-01-07T20:10:30.217Z,9.3
2023-01-07T20:13:37.182Z,9.4
2023-01-07T20:15:40.812Z,9.5
2023-01-07T20:17:44.396Z,9.5
2023-01-07T20:19:47.954Z,9.5
2023-01-07T20:21:54.633Z,9.6
2023-01-07T20:23:58.268Z,9.5
2023-01-07T20:26:01.849Z,9.6
2023-01-07T20:28:05.434Z,9.5
2023-01-07T20:30:09.062Z,9.7
2023-01-07T20:32:12.632Z,9.8
2023-01-07T20:34:16.268Z,9.8
2023-01-07T20:36:22.939Z,9.9
2023-01-07T20:38:26.501Z,9.9
2023-01-07T20:40:30.096Z,9.9
2023-01-07T20:42:33.699Z,9.8
2023-01-07T20:44:37.300Z,9.9
2023-01-07T20:46:40.933Z,10
2023-01-07T20:48:44.461Z,9.9
2023-01-07T20:50:51.119Z,9.9
2023-01-07T20:52:54.724Z,10
2023-01-07T20:54:58.345Z,10
2023-01-07T20:57:01.920Z,10
2023-01-07T20:59:05.510Z,10
2023-01-07T21:01:09.276Z,10.1
2023-01-07T21:03:14.344Z,10
2023-01-07T21:05:20.866Z,10
2023-01-07T21:07:24.426Z,10
2023-01-07T21:09:27.986Z,10
2023-01-07T21:10:31.354Z,10
2023-01-07T21:12:34.967Z,10
2023-01-07T21:14:38.526Z,10
2023-01-07T21:16:42.219Z,10
2023-01-07T21:18:48.752Z,10.1
2023-01-07T21:20:52.356Z,10.1
2023-01-07T21:22:55.980Z,9.9
2023-01-07T21:24:59.570Z,10
2023-01-07T21:27:03.191Z,9.9
2023-01-07T21:29:06.749Z,9.8
2023-01-07T21:31:10.411Z,9.8
2023-01-07T21:35:20.634Z,9.9
2023-01-07T21:37:24.228Z,9.9
2023-01-07T21:39:27.843Z,10
2023-01-07T21:41:31.426Z,9.9
2023-01-07T21:45:38.613Z,10
2023-01-07T21:49:49.152Z,10
2023-01-07T21:51:52.451Z,10
2023-01-07T21:53:56.105Z,10
2023-01-07T21:55:59.656Z,10
2023-01-07T21:58:03.247Z,10.1
2023-01-07T22:00:06.857Z,10.1
2023-01-07T22:02:13.698Z,10.1
2023-01-07T22:04:17.169Z,10.1
2023-01-07T22:06:22.135Z,10.1
2023-01-07T22:08:44.956Z,10.2
2023-01-07T22:10:48.546Z,10.1
2023-01-07T22:12:52.125Z,10.1
2023-01-07T22:14:58.763Z,10.2
2023-01-07T22:17:02.366Z,10.2
2023-01-07T22:19:05.981Z,10.2
2023-01-07T22:21:09.517Z,10.2
2023-01-07T22:25:16.714Z,10.2
2023-01-07T22:27:20.295Z,10.2
2023-01-07T22:29:26.965Z,10.2
2023-01-07T22:31:30.617Z,10.2
2023-01-07T22:33:34.169Z,10.2
2023-01-07T22:35:37.722Z,10.2
2023-01-07T22:37:41.318Z,10.3
2023-01-07T22:41:48.493Z,10.2
2023-01-07T22:43:55.131Z,10.2
2023-01-07T22:45:58.851Z,10.2
2023-01-07T22:48:02.263Z,10.2
2023-01-07T22:50:05.870Z,10.3
2023-01-07T22:52:09.455Z,10.2
2023-01-07T22:54:13.036Z,10.3
2023-01-07T22:56:16.645Z,10.3
2023-01-07T22:58:23.276Z,10.2
2023-01-07T23:00:26.958Z,10.2
2023-01-07T23:02:30.455Z,10.2
2023-01-07T23:03:33.975Z,10.2
2023-01-07T23:05:37.375Z,10.2
2023-01-07T23:07:40.979Z,10.2
2023-01-07T23:09:44.536Z,10.2
2023-01-07T23:11:51.208Z,10.1
2023-01-07T23:15:58.419Z,10.2
2023-01-07T23:26:19.405Z,10.2
2023-01-07T23:28:22.941Z,10.2
2023-01-07T23:30:26.518Z,10.2
2023-01-07T23:32:30.110Z,10.1
2023-01-07T23:34:33.702Z,10.3
2023-01-07T23:36:37.298Z,10.2
2023-01-07T23:38:41.023Z,10.2
2023-01-07T23:40:47.520Z,10.1
2023-01-07T23:42:51.132Z,10.1
2023-01-07T23:44:54.701Z,10.1
2023-01-07T23:46:58.295Z,10.1
2023-01-07T23:49:01.826Z,10.1
2023-01-07T23:51:05.424Z,10.1
2023-01-07T23:53:09.046Z,10.2
2023-01-07T23:57:19.277Z,10.1
